createdAt,value
2022-09-17T00:01:49.974Z,9.70
2022-09-17T00:04:18.230Z,9.70
2022-09-17T00:06:45.759Z,9.70
2022-09-17T00:09:13.268Z,9.70
2022-09-17T00:11:41.196Z,9.70
2022-09-17T00:14:08.752Z,9.60
2022-09-17T00:16:39.013Z,9.60
2022-09-17T00:19:06.542Z,9.60
2022-09-17T00:21:34.058Z,9.60
2022-09-17T00:24:02.389Z,9.50
2022-09-17T00:26:30.327Z,9.50
2022-09-17T00:28:58.007Z,9.50
2022-09-17T00:31:25.540Z,9.70
2022-09-17T00:33:53.843Z,9.60
2022-09-17T00:36:21.349Z,9.60
2022-09-17T00:38:49.647Z,9.50
2022-09-17T00:41:17.219Z,9.50
2022-09-17T00:43:44.744Z,9.50
2022-09-17T00:46:13.068Z,9.40
2022-09-17T00:48:41.381Z,9.40
2022-09-17T00:51:08.897Z,9.40
2022-09-17T00:53:36.422Z,9.40
2022-09-17T00:56:07.481Z,9.50
2022-09-17T00:58:39.030Z,9.50
2022-09-17T01:01:03.347Z,9.50
2022-09-17T01:03:31.623Z,9.40
2022-09-17T01:06:11.343Z,9.40
2022-09-17T01:08:54.756Z,9.40
2022-09-17T01:11:31.544Z,9.30
2022-09-17T01:14:04.604Z,9.30
2022-09-17T01:17:09.100Z,9.30
2022-09-17T01:20:07.522Z,9.30
2022-09-17T01:22:38.751Z,9.30
2022-09-17T01:25:09.781Z,9.30
2022-09-17T01:27:46.016Z,9.30
2022-09-17T01:30:31.712Z,9.30
2022-09-17T01:32:59.255Z,9.30
2022-09-17T01:35:26.788Z,9.30
2022-09-17T01:38:05.910Z,9.30
2022-09-17T01:40:54.691Z,9.20
2022-09-17T01:43:22.240Z,9.20
2022-09-17T01:45:52.483Z,9.20
2022-09-17T01:48:20.018Z,9.20
2022-09-17T01:50:56.523Z,9.20
2022-09-17T01:53:29.933Z,9.10
2022-09-17T01:55:57.470Z,9.10
2022-09-17T01:58:27.779Z,9.10
2022-09-17T02:00:55.317Z,9.10
2022-09-17T02:03:26.527Z,9.00
2022-09-17T02:05:56.741Z,9.00
2022-09-17T02:08:35.974Z,9.00
2022-09-17T02:11:09.278Z,9.00
2022-09-17T02:13:48.383Z,9.00
2022-09-17T02:16:18.495Z,9.20
2022-09-17T02:19:04.022Z,9.20
2022-09-17T02:21:49.850Z,9.20
2022-09-17T02:24:20.251Z,9.20
2022-09-17T02:26:56.836Z,9.40
2022-09-17T02:29:24.360Z,9.50
2022-09-17T02:31:52.754Z,9.40
2022-09-17T02:34:20.212Z,9.30
2022-09-17T02:36:47.806Z,9.30
2022-09-17T02:39:15.320Z,9.30
2022-09-17T02:41:52.533Z,9.20
2022-09-17T02:44:20.060Z,9.20
2022-09-17T02:46:53.932Z,9.20
2022-09-17T02:49:45.769Z,9.20
2022-09-17T02:52:16.426Z,9.20
2022-09-17T02:54:50.225Z,9.30
2022-09-17T02:57:21.482Z,9.30
2022-09-17T03:00:11.694Z,9.30
2022-09-17T03:02:50.959Z,9.30
2022-09-17T03:05:18.537Z,9.40
2022-09-17T03:07:46.072Z,9.40
2022-09-17T03:10:13.616Z,9.50
2022-09-17T03:12:41.213Z,9.50
2022-09-17T03:15:08.777Z,9.60
2022-09-17T03:17:36.297Z,9.60
2022-09-17T03:20:03.898Z,9.90
2022-09-17T03:22:31.442Z,10.20
2022-09-17T03:24:58.972Z,10.20
2022-09-17T03:27:26.516Z,10.20
2022-09-17T03:29:54.050Z,10.20
2022-09-17T03:32:22.343Z,10.20
2022-09-17T03:34:50.663Z,10.10
2022-09-17T03:37:18.099Z,10.20
2022-09-17T03:39:45.633Z,10.20
2022-09-17T03:42:13.188Z,10.50
2022-09-17T03:44:45.179Z,10.50
2022-09-17T03:47:08.243Z,10.50
2022-09-17T03:49:35.799Z,10.50
2022-09-17T03:52:03.325Z,10.50
2022-09-17T03:54:30.848Z,10.50
2022-09-17T03:56:58.416Z,10.50
2022-09-17T03:59:25.949Z,10.50
2022-09-17T04:01:53.615Z,10.50
2022-09-17T04:04:21.047Z,10.60
2022-09-17T04:06:48.595Z,10.80
2022-09-17T04:09:16.120Z,10.90
2022-09-17T04:11:44.828Z,10.80
2022-09-17T04:14:12.361Z,10.80
2022-09-17T04:16:40.660Z,10.80
2022-09-17T04:19:08.249Z,10.80
2022-09-17T04:21:35.794Z,10.80
2022-09-17T04:24:03.325Z,10.80
2022-09-17T04:26:31.662Z,10.80
2022-09-17T04:28:59.205Z,10.80
2022-09-17T04:31:26.765Z,10.90
2022-09-17T04:33:55.209Z,10.90
2022-09-17T04:36:22.744Z,10.90
2022-09-17T04:38:51.047Z,10.90
2022-09-17T04:41:21.526Z,10.90
2022-09-17T04:43:49.102Z,10.90
2022-09-17T04:46:16.626Z,10.90
2022-09-17T04:48:45.408Z,11.20
2022-09-17T04:51:12.939Z,11.20
2022-09-17T04:53:40.464Z,11.20
2022-09-17T04:56:08.028Z,11.40
2022-09-17T04:58:36.330Z,11.40
2022-09-17T05:01:03.932Z,11.30
2022-09-17T05:03:31.431Z,11.30
2022-09-17T05:05:58.965Z,11.30
2022-09-17T05:08:26.487Z,11.30
2022-09-17T05:10:54.100Z,11.30
2022-09-17T05:13:22.413Z,11.20
2022-09-17T05:15:50.016Z,11.20
2022-09-17T05:18:17.571Z,11.20
2022-09-17T05:20:45.100Z,11.20
2022-09-17T05:23:12.624Z,11.20
2022-09-17T05:25:41.005Z,11.10
2022-09-17T05:28:09.295Z,11.10
2022-09-17T05:30:36.833Z,11.10
2022-09-17T05:33:05.245Z,11.10
2022-09-17T05:35:32.780Z,11.10
2022-09-17T05:38:01.084Z,11.10
2022-09-17T05:40:28.735Z,11.10
2022-09-17T05:42:59.200Z,11.10
2022-09-17T05:45:26.734Z,11.10
2022-09-17T05:47:57.263Z,11.10
2022-09-17T05:50:24.798Z,11.30
2022-09-17T05:52:52.342Z,11.30
2022-09-17T05:55:20.680Z,11.20
2022-09-17T05:57:48.190Z,11.20
2022-09-17T06:00:15.723Z,11.20
2022-09-17T06:02:43.474Z,11.20
2022-09-17T06:05:11.590Z,11.20
2022-09-17T06:07:39.125Z,11.10
2022-09-17T06:10:07.462Z,11.10
2022-09-17T06:12:34.998Z,11.10
2022-09-17T06:15:02.541Z,11.10
2022-09-17T06:17:30.125Z,11.10
2022-09-17T06:19:58.715Z,11.10
2022-09-17T06:22:26.129Z,11.40
2022-09-17T06:24:54.451Z,11.50
2022-09-17T06:27:21.983Z,11.40
2022-09-17T06:29:49.528Z,11.40
2022-09-17T06:32:17.145Z,11.40
2022-09-17T06:34:44.675Z,11.40
2022-09-17T06:37:12.936Z,11.50
2022-09-17T06:39:40.500Z,11.40
2022-09-17T06:42:08.047Z,11.50
2022-09-17T06:44:35.600Z,11.60
2022-09-17T06:47:03.945Z,11.60
2022-09-17T06:49:31.466Z,11.60
2022-09-17T06:51:59.000Z,11.70
2022-09-17T06:54:26.593Z,11.70
2022-09-17T06:56:54.138Z,11.80
2022-09-17T06:59:21.675Z,11.80
2022-09-17T07:01:49.322Z,11.80
2022-09-17T07:04:16.789Z,11.90
2022-09-17T07:06:44.324Z,11.90
2022-09-17T07:09:11.907Z,11.90
2022-09-17T07:11:39.442Z,12.00
2022-09-17T07:14:06.969Z,12.10
2022-09-17T07:16:34.622Z,12.20
2022-09-17T07:19:02.112Z,12.20
2022-09-17T07:21:29.648Z,12.30
2022-09-17T07:23:57.217Z,12.60
2022-09-17T07:26:24.761Z,12.70
2022-09-17T07:28:52.290Z,12.70
2022-09-17T07:31:20.849Z,12.90
2022-09-17T07:33:48.326Z,13.00
2022-09-17T07:36:15.860Z,13.00
2022-09-17T07:38:44.214Z,13.00
2022-09-17T07:41:11.749Z,13.00
2022-09-17T07:43:39.275Z,13.00
2022-09-17T07:46:06.926Z,13.20
2022-09-17T07:48:34.370Z,13.20
2022-09-17T07:51:01.916Z,13.10
2022-09-17T07:53:30.465Z,13.10
2022-09-17T07:55:57.989Z,13.10
2022-09-17T07:58:29.326Z,13.30
2022-09-17T08:01:00.663Z,13.30
2022-09-17T08:03:28.201Z,13.30
2022-09-17T08:05:55.735Z,13.20
2022-09-17T08:08:23.309Z,13.20
2022-09-17T08:10:50.826Z,13.40
2022-09-17T08:13:18.467Z,13.40
2022-09-17T08:15:46.834Z,13.20
2022-09-17T08:18:14.353Z,13.20
2022-09-17T08:20:41.875Z,13.20
2022-09-17T08:23:09.461Z,13.20
2022-09-17T08:25:36.996Z,13.20
2022-09-17T08:28:04.559Z,13.20
2022-09-17T08:30:32.141Z,13.20
2022-09-17T08:32:59.676Z,13.30
2022-09-17T08:35:27.977Z,13.40
2022-09-17T08:37:55.555Z,13.40
2022-09-17T08:40:23.219Z,13.60
2022-09-17T08:42:53.659Z,13.60
2022-09-17T08:45:21.227Z,13.90
2022-09-17T08:47:48.790Z,13.90
2022-09-17T08:50:18.964Z,13.90
2022-09-17T08:52:52.158Z,13.90
2022-09-17T08:55:28.612Z,14.10
2022-09-17T08:58:04.888Z,14.10
2022-09-17T09:00:32.422Z,14.10
2022-09-17T09:03:14.955Z,14.10
2022-09-17T09:05:45.064Z,14.10
2022-09-17T09:08:27.616Z,14.10
2022-09-17T09:10:55.151Z,14.10
2022-09-17T09:13:22.686Z,14.10
2022-09-17T09:15:55.893Z,14.40
2022-09-17T09:18:23.404Z,14.40
2022-09-17T09:21:28.576Z,14.30
2022-09-17T09:24:02.170Z,14.30
2022-09-17T09:26:42.509Z,14.40
2022-09-17T09:29:10.823Z,14.40
2022-09-17T09:31:53.267Z,14.40
2022-09-17T09:34:21.507Z,14.60
2022-09-17T09:36:49.036Z,14.60
2022-09-17T09:39:17.381Z,14.80
2022-09-17T09:41:44.906Z,14.80
2022-09-17T09:44:12.621Z,14.90
2022-09-17T09:47:01.487Z,15.20
2022-09-17T09:49:31.950Z,15.30
2022-09-17T09:51:59.466Z,15.30
2022-09-17T09:54:46.252Z,15.30
2022-09-17T09:57:13.796Z,15.30
2022-09-17T09:59:43.783Z,15.20
2022-09-17T10:02:11.442Z,15.20
2022-09-17T10:04:38.891Z,15.30
2022-09-17T10:07:06.431Z,15.30
2022-09-17T10:09:34.952Z,15.30
2022-09-17T10:12:11.496Z,15.30
2022-09-17T10:14:39.063Z,15.30
2022-09-17T10:17:24.866Z,15.30
2022-09-17T10:20:07.039Z,15.30
2022-09-17T10:22:38.031Z,15.30
2022-09-17T10:25:05.617Z,15.20
2022-09-17T10:27:33.197Z,15.30
2022-09-17T10:30:10.542Z,15.20
2022-09-17T10:32:38.116Z,15.20
2022-09-17T10:35:05.676Z,15.20
2022-09-17T10:37:35.653Z,15.20
2022-09-17T10:40:03.261Z,15.50
2022-09-17T10:42:30.771Z,15.70
2022-09-17T10:44:58.317Z,15.70
2022-09-17T10:47:26.008Z,15.90
2022-09-17T10:50:08.531Z,15.80
2022-09-17T10:52:36.095Z,15.80
2022-09-17T10:55:06.168Z,15.80
2022-09-17T10:57:33.705Z,16.00
2022-09-17T11:00:02.038Z,16.20
2022-09-17T11:02:29.647Z,16.10
2022-09-17T11:05:30.604Z,16.00
2022-09-17T11:08:01.980Z,16.00
2022-09-17T11:10:29.444Z,15.80
2022-09-17T11:13:02.630Z,15.60
2022-09-17T11:15:35.933Z,15.50
2022-09-17T11:18:21.819Z,15.50
2022-09-17T11:21:10.589Z,15.50
2022-09-17T11:23:47.438Z,15.50
2022-09-17T11:26:33.275Z,15.50
2022-09-17T11:29:10.601Z,15.60
2022-09-17T11:31:38.162Z,15.60
2022-09-17T11:34:05.638Z,15.50
2022-09-17T11:36:38.932Z,15.50
2022-09-17T11:39:06.460Z,15.50
2022-09-17T11:41:34.024Z,15.60
2022-09-17T11:44:10.402Z,15.60
2022-09-17T11:46:56.351Z,15.60
2022-09-17T11:49:38.540Z,15.50
2022-09-17T11:52:08.722Z,15.50
2022-09-17T11:54:44.972Z,15.40
2022-09-17T11:57:21.144Z,15.50
2022-09-17T11:59:54.834Z,15.50
2022-09-17T12:02:46.953Z,15.60
2022-09-17T12:05:18.042Z,15.70
2022-09-17T12:08:22.883Z,15.70
2022-09-17T12:10:53.782Z,15.80
2022-09-17T12:13:58.368Z,15.80
2022-09-17T12:16:31.873Z,16.00
2022-09-17T12:19:20.355Z,16.00
2022-09-17T12:21:53.440Z,16.10
2022-09-17T12:24:29.378Z,16.00
2022-09-17T12:27:28.257Z,16.00
2022-09-17T12:30:00.115Z,16.00
2022-09-17T12:32:59.723Z,16.10
2022-09-17T12:38:15.873Z,16.20
2022-09-17T12:40:55.208Z,16.30
2022-09-17T12:43:25.687Z,16.40
2022-09-17T12:46:01.868Z,16.50
2022-09-17T12:49:03.303Z,16.50
2022-09-17T12:51:33.622Z,16.50
2022-09-17T12:54:03.854Z,16.50
2022-09-17T12:56:34.782Z,16.50
2022-09-17T12:59:11.153Z,16.50
2022-09-17T13:01:44.854Z,16.50
2022-09-17T13:04:59.358Z,16.90
2022-09-17T13:07:07.591Z,16.90
2022-09-17T13:09:35.116Z,16.80
2022-09-17T13:12:18.638Z,16.90
2022-09-17T13:15:04.300Z,16.70
2022-09-17T13:17:41.366Z,16.40
2022-09-17T13:20:26.934Z,16.10
2022-09-17T13:22:54.555Z,15.90
2022-09-17T13:25:22.058Z,15.90
2022-09-17T13:27:49.609Z,15.80
2022-09-17T13:30:18.098Z,15.70
2022-09-17T13:32:45.635Z,15.60
2022-09-17T13:35:16.141Z,15.50
2022-09-17T13:37:58.801Z,15.70
2022-09-17T13:40:35.389Z,15.70
2022-09-17T13:43:05.916Z,15.60
2022-09-17T13:45:33.442Z,15.50
2022-09-17T13:48:10.271Z,15.50
2022-09-17T13:50:38.634Z,15.60
2022-09-17T13:53:08.848Z,15.50
2022-09-17T13:55:36.373Z,15.60
2022-09-17T13:58:04.243Z,15.70
2022-09-17T14:01:09.174Z,15.90
2022-09-17T14:03:43.273Z,15.90
2022-09-17T14:06:10.808Z,15.70
2022-09-17T14:08:45.111Z,15.50
2022-09-17T14:11:25.673Z,15.40
2022-09-17T14:13:55.872Z,15.40
2022-09-17T14:16:26.281Z,15.30
2022-09-17T14:18:57.501Z,15.20
2022-09-17T14:21:25.045Z,15.20
2022-09-17T14:23:56.268Z,15.00
2022-09-17T14:26:45.189Z,15.00
2022-09-17T14:29:24.322Z,15.00
2022-09-17T14:31:51.886Z,14.90
2022-09-17T14:34:19.417Z,14.80
2022-09-17T14:36:46.942Z,14.70
2022-09-17T14:39:21.241Z,14.70
2022-09-17T14:41:48.776Z,14.70
2022-09-17T14:44:16.933Z,14.50
2022-09-17T14:46:56.476Z,14.40
2022-09-17T14:49:26.853Z,14.50
2022-09-17T14:51:55.177Z,14.40
2022-09-17T14:54:33.650Z,14.40
2022-09-17T14:57:09.401Z,14.30
2022-09-17T14:59:57.151Z,14.20
2022-09-17T15:02:33.708Z,14.20
2022-09-17T15:05:01.942Z,14.10
2022-09-17T15:07:29.477Z,14.10
2022-09-17T15:09:57.031Z,14.10
2022-09-17T15:12:24.675Z,14.40
2022-09-17T15:14:52.210Z,14.40
2022-09-17T15:17:20.521Z,14.30
2022-09-17T15:19:48.103Z,14.30
2022-09-17T15:22:15.629Z,14.30
2022-09-17T15:24:46.107Z,14.20
2022-09-17T15:27:13.671Z,14.10
2022-09-17T15:29:41.207Z,14.10
2022-09-17T15:32:08.721Z,14.10
2022-09-17T15:34:36.354Z,14.20
2022-09-17T15:37:18.608Z,14.40
2022-09-17T15:39:51.668Z,14.50
2022-09-17T15:42:27.875Z,14.80
2022-09-17T15:45:13.763Z,14.90
2022-09-17T15:47:55.925Z,14.90
2022-09-17T15:50:26.665Z,15.00
2022-09-17T15:53:09.501Z,14.90
2022-09-17T15:55:39.536Z,15.00
2022-09-17T15:58:18.631Z,15.20
2022-09-17T16:00:46.193Z,15.30
2022-09-17T16:03:31.460Z,15.30
2022-09-17T16:06:04.000Z,15.20
2022-09-17T16:08:27.611Z,15.00
2022-09-17T16:10:55.146Z,15.10
2022-09-17T16:13:28.468Z,15.10
2022-09-17T16:15:51.074Z,15.10
2022-09-17T16:18:18.556Z,15.00
2022-09-17T16:20:46.122Z,14.80
2022-09-17T16:23:13.672Z,14.70
2022-09-17T16:25:41.942Z,14.60
2022-09-17T16:28:10.279Z,14.50
2022-09-17T16:30:37.805Z,14.50
2022-09-17T16:33:05.334Z,14.40
2022-09-17T16:35:33.701Z,14.30
2022-09-17T16:38:01.193Z,14.30
2022-09-17T16:40:28.789Z,14.50
2022-09-17T16:42:56.302Z,14.40
2022-09-17T16:45:28.196Z,14.40
2022-09-17T16:47:51.365Z,14.30
2022-09-17T16:50:18.950Z,14.20
2022-09-17T16:52:46.492Z,14.10
2022-09-17T16:55:14.039Z,14.20
2022-09-17T16:57:41.600Z,14.20
2022-09-17T17:00:09.267Z,14.10
2022-09-17T17:02:36.827Z,13.90
2022-09-17T17:05:04.372Z,13.80
2022-09-17T17:07:35.026Z,13.80
2022-09-17T17:10:02.592Z,13.70
2022-09-17T17:12:30.152Z,13.60
2022-09-17T17:14:57.686Z,13.80
2022-09-17T17:17:25.235Z,13.90
2022-09-17T17:19:52.885Z,13.80
2022-09-17T17:22:21.140Z,13.60
2022-09-17T17:24:48.665Z,13.60
2022-09-17T17:27:16.232Z,13.40
2022-09-17T17:29:44.533Z,13.30
2022-09-17T17:32:12.067Z,13.20
2022-09-17T17:34:39.644Z,13.20
2022-09-17T17:37:07.171Z,13.20
2022-09-17T17:39:34.692Z,13.10
2022-09-17T17:42:02.270Z,13.10
2022-09-17T17:44:29.789Z,13.30
2022-09-17T17:46:57.349Z,13.20
2022-09-17T17:49:25.642Z,13.10
2022-09-17T17:51:53.089Z,13.10
2022-09-17T17:54:20.619Z,13.00
2022-09-17T17:56:48.979Z,12.90
2022-09-17T17:59:16.510Z,12.90
2022-09-17T18:01:44.123Z,12.80
2022-09-17T18:04:11.636Z,12.70
2022-09-17T18:06:39.167Z,12.70
2022-09-17T18:09:06.703Z,12.80
2022-09-17T18:11:34.270Z,12.80
2022-09-17T18:14:01.817Z,12.90
2022-09-17T18:16:30.224Z,12.80
2022-09-17T18:19:00.284Z,12.70
2022-09-17T18:21:28.494Z,12.60
2022-09-17T18:23:56.018Z,12.50
2022-09-17T18:26:23.603Z,12.50
2022-09-17T18:28:51.898Z,12.30
2022-09-17T18:31:28.231Z,12.30
2022-09-17T18:33:55.828Z,12.20
2022-09-17T18:36:23.361Z,12.20
2022-09-17T18:38:57.603Z,12.00
2022-09-17T18:41:25.179Z,12.00
2022-09-17T18:43:52.704Z,11.90
2022-09-17T18:46:20.264Z,12.10
2022-09-17T18:48:47.813Z,12.10
2022-09-17T18:51:16.956Z,12.10
2022-09-17T18:53:47.263Z,12.10
2022-09-17T18:56:11.971Z,12.10
2022-09-17T18:58:39.516Z,11.90
2022-09-17T19:01:07.129Z,11.80
2022-09-17T19:03:35.666Z,11.70
2022-09-17T19:06:03.198Z,11.70
2022-09-17T19:08:30.723Z,11.60
2022-09-17T19:10:58.317Z,11.50
2022-09-17T19:13:25.882Z,11.50
2022-09-17T19:15:53.456Z,11.40
2022-09-17T19:18:21.000Z,11.40
2022-09-17T19:20:48.595Z,11.40
2022-09-17T19:23:16.600Z,11.40
2022-09-17T19:25:45.258Z,11.30
2022-09-17T19:28:12.788Z,11.30
2022-09-17T19:30:40.320Z,11.30
2022-09-17T19:33:08.215Z,11.50
2022-09-17T19:35:35.760Z,11.50
2022-09-17T19:38:03.275Z,11.50
2022-09-17T19:40:30.956Z,11.40
2022-09-17T19:42:58.416Z,11.40
2022-09-17T19:45:26.719Z,11.50
2022-09-17T19:47:54.313Z,11.50
2022-09-17T19:50:21.856Z,11.50
2022-09-17T19:52:49.411Z,11.40
2022-09-17T19:55:16.990Z,11.60
2022-09-17T19:57:44.503Z,11.50
2022-09-17T20:00:12.195Z,11.40
2022-09-17T20:02:39.814Z,11.30
2022-09-17T20:05:07.312Z,11.20
2022-09-17T20:07:34.827Z,11.10
2022-09-17T20:10:03.495Z,11.00
2022-09-17T20:12:31.029Z,11.00
2022-09-17T20:14:58.562Z,10.90
2022-09-17T20:17:26.145Z,10.90
2022-09-17T20:19:53.686Z,10.90
2022-09-17T20:22:21.201Z,10.80
2022-09-17T20:24:51.029Z,10.80
2022-09-17T20:27:16.310Z,10.80
2022-09-17T20:29:44.613Z,10.70
2022-09-17T20:32:12.247Z,10.70
2022-09-17T20:34:39.760Z,10.70
2022-09-17T20:37:13.425Z,10.70
2022-09-17T20:39:35.745Z,10.60
2022-09-17T20:42:04.056Z,10.60
2022-09-17T20:44:31.728Z,10.60
2022-09-17T20:46:59.363Z,10.60
2022-09-17T20:49:26.825Z,10.50
2022-09-17T20:51:54.360Z,10.50
2022-09-17T20:54:22.722Z,10.50
2022-09-17T20:56:50.264Z,10.50
2022-09-17T20:59:17.802Z,10.50
2022-09-17T21:01:45.723Z,10.70
2022-09-17T21:04:12.973Z,11.00
2022-09-17T21:06:40.450Z,11.00
2022-09-17T21:09:08.062Z,10.90
2022-09-17T21:11:35.558Z,10.80
2022-09-17T21:14:03.094Z,10.80
2022-09-17T21:16:30.824Z,10.80
2022-09-17T21:18:58.247Z,10.70
2022-09-17T21:21:26.536Z,10.70
2022-09-17T21:23:54.129Z,10.70
2022-09-17T21:26:21.657Z,10.70
2022-09-17T21:28:49.199Z,10.70
2022-09-17T21:31:19.801Z,10.80
2022-09-17T21:33:47.320Z,10.70
2022-09-17T21:36:16.351Z,10.70
2022-09-17T21:38:43.815Z,10.70
2022-09-17T21:41:15.152Z,10.80
2022-09-17T21:43:42.693Z,10.70
2022-09-17T21:46:10.389Z,10.80
2022-09-17T21:48:37.892Z,11.00
2022-09-17T21:51:05.422Z,11.00
2022-09-17T21:53:34.050Z,11.00
2022-09-17T21:56:01.584Z,10.90
2022-09-17T21:58:29.118Z,10.90
2022-09-17T22:00:57.462Z,10.90
2022-09-17T22:03:25.261Z,10.90
2022-09-17T22:05:53.555Z,11.10
2022-09-17T22:08:25.815Z,11.20
2022-09-17T22:10:53.361Z,11.20
2022-09-17T22:13:21.664Z,11.20
2022-09-17T22:15:49.280Z,11.20
2022-09-17T22:18:16.766Z,11.20
2022-09-17T22:20:44.293Z,11.20
2022-09-17T22:23:11.877Z,11.20
2022-09-17T22:25:40.180Z,11.20
2022-09-17T22:28:20.633Z,11.20
2022-09-17T22:30:36.054Z,11.20
2022-09-17T22:33:03.602Z,11.20
2022-09-17T22:35:31.147Z,11.20
2022-09-17T22:37:58.924Z,11.20
2022-09-17T22:40:26.372Z,11.40
2022-09-17T22:42:53.885Z,11.40
2022-09-17T22:45:22.228Z,11.40
2022-09-17T22:47:49.743Z,11.40
2022-09-17T22:50:17.288Z,11.40
2022-09-17T22:52:45.650Z,11.30
2022-09-17T22:55:13.178Z,11.20
2022-09-17T22:57:40.710Z,11.30
2022-09-17T23:00:08.560Z,11.20
2022-09-17T23:02:36.134Z,11.20
2022-09-17T23:05:04.387Z,11.10
2022-09-17T23:07:31.962Z,11.10
2022-09-17T23:09:59.483Z,11.10
2022-09-17T23:12:27.786Z,11.10
2022-09-17T23:14:55.341Z,11.10
2022-09-17T23:17:27.188Z,11.10
2022-09-17T23:19:51.174Z,11.10
2022-09-17T23:22:19.673Z,11.10
2022-09-17T23:24:47.208Z,11.10
2022-09-17T23:27:15.507Z,11.10
2022-09-17T23:29:43.081Z,11.10
2022-09-17T23:32:10.625Z,11.10
2022-09-17T23:34:38.161Z,11.10
2022-09-17T23:37:06.497Z,11.10
2022-09-17T23:39:34.017Z,11.10
2022-09-17T23:42:01.570Z,11.10
2022-09-17T23:44:29.154Z,11.40
2022-09-17T23:46:56.680Z,11.40
2022-09-17T23:49:24.214Z,11.60
2022-09-17T23:51:52.332Z,11.60
2022-09-17T23:54:19.865Z,11.50
2022-09-17T23:56:47.390Z,11.40
2022-09-17T23:59:15.308Z,11.40
